sensor_id;sensor_type;location;lat;lon;timestamp;temperature;humidity
27368;DHT22;14839;48.106;11.618;2023-02-01T05:01:24;3.50;94.60
27368;DHT22;14839;48.106;11.618;2023-02-01T05:03:52;3.40;94.60
27368;DHT22;14839;48.106;11.618;2023-02-01T05:06:17;3.50;94.60
27368;DHT22;14839;48.106;11.618;2023-02-01T05:08:43;3.50;94.60
27368;DHT22;14839;48.106;11.618;2023-02-01T05:11:09;3.50;94.60
27368;DHT22;14839;48.106;11.618;2023-02-01T05:13:53;3.50;94.60
27368;DHT22;14839;48.106;11.618;2023-02-01T05:16:19;3.50;94.60
27368;DHT22;14839;48.106;11.618;2023-02-01T05:18:44;3.50;94.60
27368;DHT22;14839;48.106;11.618;2023-02-01T05:21:10;3.50;94.60
27368;DHT22;14839;48.106;11.618;2023-02-01T05:23:35;3.50;94.60
27368;DHT22;14839;48.106;11.618;2023-02-01T05:26:21;3.50;94.60
27368;DHT22;14839;48.106;11.618;2023-02-01T05:28:47;3.50;94.60
27368;DHT22;14839;48.106;11.618;2023-02-01T05:31:12;3.50;94.60
27368;DHT22;14839;48.106;11.618;2023-02-01T05:33:38;3.50;94.60
27368;DHT22;14839;48.106;11.618;2023-02-01T05:36:04;3.50;94.60
27368;DHT22;14839;48.106;11.618;2023-02-01T05:38:29;3.50;94.60
27368;DHT22;14839;48.106;11.618;2023-02-01T05:40:55;3.50;94.60
27368;DHT22;14839;48.106;11.618;2023-02-01T05:43:22;3.50;94.60
27368;DHT22;14839;48.106;11.618;2023-02-01T05:45:47;3.50;94.60
27368;DHT22;14839;48.106;11.618;2023-02-01T05:48:13;3.50;94.60
27368;DHT22;14839;48.106;11.618;2023-02-01T05:50:38;3.50;94.60
27368;DHT22;14839;48.106;11.618;2023-02-01T05:53:04;3.50;94.60
27368;DHT22;14839;48.106;11.618;2023-02-01T05:55:30;3.50;94.60
27368;DHT22;14839;48.106;11.618;2023-02-01T05:57:55;3.50;94.60
27368;DHT22;14839;48.106;11.618;2023-02-01T06:00:21;3.50;94.60
27368;DHT22;14839;48.106;11.618;2023-02-01T06:02:47;3.60;94.60
27368;DHT22;14839;48.106;11.618;2023-02-01T06:05:13;3.60;94.60
27368;DHT22;14839;48.106;11.618;2023-02-01T06:07:38;3.60;94.60
27368;DHT22;14839;48.106;11.618;2023-02-01T06:10:04;3.60;94.60
27368;DHT22;14839;48.106;11.618;2023-02-01T06:12:30;3.60;94.60
27368;DHT22;14839;48.106;11.618;2023-02-01T06:14:56;3.60;94.60
27368;DHT22;14839;48.106;11.618;2023-02-01T06:17:21;3.60;94.60
27368;DHT22;14839;48.106;11.618;2023-02-01T06:19:47;3.60;94.60
27368;DHT22;14839;48.106;11.618;2023-02-01T06:22:14;3.60;94.60
27368;DHT22;14839;48.106;11.618;2023-02-01T06:24:39;3.50;94.60
27368;DHT22;14839;48.106;11.618;2023-02-01T06:27:06;3.60;94.60
27368;DHT22;14839;48.106;11.618;2023-02-01T06:29:32;3.60;94.60
27368;DHT22;14839;48.106;11.618;2023-02-01T06:31:58;3.60;94.60
27368;DHT22;14839;48.106;11.618;2023-02-01T06:34:24;3.60;94.60
27368;DHT22;14839;48.106;11.618;2023-02-01T06:36:50;3.60;94.60
27368;DHT22;14839;48.106;11.618;2023-02-01T06:39:15;3.60;94.60
27368;DHT22;14839;48.106;11.618;2023-02-01T06:41:42;3.60;94.60
27368;DHT22;14839;48.106;11.618;2023-02-01T06:44:10;3.60;94.60
27368;DHT22;14839;48.106;11.618;2023-02-01T06:46:36;3.60;94.60
27368;DHT22;14839;48.106;11.618;2023-02-01T06:49:02;3.60;94.60
27368;DHT22;14839;48.106;11.618;2023-02-01T06:51:28;3.50;94.60
27368;DHT22;14839;48.106;11.618;2023-02-01T06:53:54;3.50;94.60
27368;DHT22;14839;48.106;11.618;2023-02-01T06:56:20;3.50;94.60
27368;DHT22;14839;48.106;11.618;2023-02-01T06:58:46;3.60;94.60
27368;DHT22;14839;48.106;11.618;2023-02-01T07:01:12;3.60;94.60
27368;DHT22;14839;48.106;11.618;2023-02-01T07:03:39;3.60;94.60
27368;DHT22;14839;48.106;11.618;2023-02-01T07:06:05;3.70;94.60
27368;DHT22;14839;48.106;11.618;2023-02-01T07:08:33;3.70;94.60
27368;DHT22;14839;48.106;11.618;2023-02-01T07:11:04;3.70;94.60
27368;DHT22;14839;48.106;11.618;2023-02-01T07:13:30;3.70;94.60
27368;DHT22;14839;48.106;11.618;2023-02-01T07:15:58;3.70;94.60
27368;DHT22;14839;48.106;11.618;2023-02-01T07:18:25;3.70;94.60
27368;DHT22;14839;48.106;11.618;2023-02-01T07:20:50;3.80;94.60
27368;DHT22;14839;48.106;11.618;2023-02-01T07:23:16;3.80;94.60
27368;DHT22;14839;48.106;11.618;2023-02-01T07:25:42;3.80;94.60
27368;DHT22;14839;48.106;11.618;2023-02-01T07:28:08;3.80;94.60
27368;DHT22;14839;48.106;11.618;2023-02-01T07:30:33;3.80;94.60
27368;DHT22;14839;48.106;11.618;2023-02-01T07:32:59;3.80;94.60
27368;DHT22;14839;48.106;11.618;2023-02-01T07:35:27;3.80;94.60
27368;DHT22;14839;48.106;11.618;2023-02-01T07:37:53;3.80;94.60
27368;DHT22;14839;48.106;11.618;2023-02-01T07:40:18;3.80;94.60
27368;DHT22;14839;48.106;11.618;2023-02-01T07:42:48;3.80;94.60
27368;DHT22;14839;48.106;11.618;2023-02-01T07:45:14;3.90;94.60
27368;DHT22;14839;48.106;11.618;2023-02-01T07:47:40;3.90;94.60
27368;DHT22;14839;48.106;11.618;2023-02-01T07:50:06;3.90;94.60
27368;DHT22;14839;48.106;11.618;2023-02-01T07:52:32;3.90;94.60
27368;DHT22;14839;48.106;11.618;2023-02-01T07:54:57;3.90;94.60
27368;DHT22;14839;48.106;11.618;2023-02-01T07:57:23;4.00;94.60
27368;DHT22;14839;48.106;11.618;2023-02-01T07:59:48;4.00;94.60
27368;DHT22;14839;48.106;11.618;2023-02-01T08:02:32;4.00;94.60
27368;DHT22;14839;48.106;11.618;2023-02-01T08:04:58;4.10;94.60
27368;DHT22;14839;48.106;11.618;2023-02-01T08:07:24;4.10;94.60
27368;DHT22;14839;48.106;11.618;2023-02-01T08:09:49;4.20;94.60
27368;DHT22;14839;48.106;11.618;2023-02-01T08:12:15;4.20;94.60
27368;DHT22;14839;48.106;11.618;2023-02-01T08:14:40;4.20;94.60
27368;DHT22;14839;48.106;11.618;2023-02-01T08:17:06;4.20;94.60
27368;DHT22;14839;48.106;11.618;2023-02-01T08:19:32;4.30;94.30
27368;DHT22;14839;48.106;11.618;2023-02-01T08:21:57;4.30;94.10
27368;DHT22;14839;48.106;11.618;2023-02-01T08:24:24;4.40;93.90
27368;DHT22;14839;48.106;11.618;2023-02-01T08:26:50;4.40;93.90
27368;DHT22;14839;48.106;11.618;2023-02-01T08:29:16;4.40;93.40
27368;DHT22;14839;48.106;11.618;2023-02-01T08:31:41;4.40;93.20
27368;DHT22;14839;48.106;11.618;2023-02-01T08:34:09;4.50;92.80
27368;DHT22;14839;48.106;11.618;2023-02-01T08:36:35;4.50;93.00
27368;DHT22;14839;48.106;11.618;2023-02-01T08:39:01;4.50;92.80
27368;DHT22;14839;48.106;11.618;2023-02-01T08:41:29;4.60;92.60
27368;DHT22;14839;48.106;11.618;2023-02-01T08:43:56;4.60;92.30
27368;DHT22;14839;48.106;11.618;2023-02-01T08:46:22;4.60;92.40
27368;DHT22;14839;48.106;11.618;2023-02-01T08:48:48;4.70;92.20
27368;DHT22;14839;48.106;11.618;2023-02-01T08:51:16;4.70;92.10
27368;DHT22;14839;48.106;11.618;2023-02-01T08:53:42;4.80;91.50
27368;DHT22;14839;48.106;11.618;2023-02-01T08:56:09;4.90;91.30
27368;DHT22;14839;48.106;11.618;2023-02-01T08:58:35;4.90;91.00
27368;DHT22;14839;48.106;11.618;2023-02-01T09:01:06;5.00;90.90
27368;DHT22;14839;48.106;11.618;2023-02-01T09:03:32;5.10;90.80
27368;DHT22;14839;48.106;11.618;2023-02-01T09:06:03;5.10;90.40
27368;DHT22;14839;48.106;11.618;2023-02-01T09:08:29;5.20;90.20
27368;DHT22;14839;48.106;11.618;2023-02-01T09:11:02;5.30;90.10
27368;DHT22;14839;48.106;11.618;2023-02-01T09:13:28;5.40;89.30
27368;DHT22;14839;48.106;11.618;2023-02-01T09:15:53;5.30;89.20
27368;DHT22;14839;48.106;11.618;2023-02-01T09:18:19;5.40;89.30
27368;DHT22;14839;48.106;11.618;2023-02-01T09:20:45;5.40;89.60
27368;DHT22;14839;48.106;11.618;2023-02-01T09:23:10;5.40;89.30
27368;DHT22;14839;48.106;11.618;2023-02-01T09:25:39;5.40;88.70
27368;DHT22;14839;48.106;11.618;2023-02-01T09:28:05;5.50;88.90
27368;DHT22;14839;48.106;11.618;2023-02-01T09:30:34;5.50;88.70
27368;DHT22;14839;48.106;11.618;2023-02-01T09:33:00;5.70;88.70
27368;DHT22;14839;48.106;11.618;2023-02-01T09:35:26;5.60;88.70
27368;DHT22;14839;48.106;11.618;2023-02-01T09:37:53;5.70;88.90
27368;DHT22;14839;48.106;11.618;2023-02-01T09:40:19;5.70;88.70
27368;DHT22;14839;48.106;11.618;2023-02-01T09:45:44;5.90;88.10
27368;DHT22;14839;48.106;11.618;2023-02-01T09:48:17;6.00;87.80
27368;DHT22;14839;48.106;11.618;2023-02-01T09:50:48;6.10;87.50
27368;DHT22;14839;48.106;11.618;2023-02-01T09:53:22;6.10;87.40
27368;DHT22;14839;48.106;11.618;2023-02-01T09:55:53;6.10;88.00
27368;DHT22;14839;48.106;11.618;2023-02-01T09:58:30;6.10;87.50
27368;DHT22;14839;48.106;11.618;2023-02-01T10:00:59;6.20;87.40
27368;DHT22;14839;48.106;11.618;2023-02-01T10:03:32;6.30;86.90
27368;DHT22;14839;48.106;11.618;2023-02-01T10:06:24;6.10;87.10
27368;DHT22;14839;48.106;11.618;2023-02-01T10:23:09;6.00;87.80
27368;DHT22;14839;48.106;11.618;2023-02-01T10:25:50;5.90;88.00
27368;DHT22;14839;48.106;11.618;2023-02-01T10:28:18;5.90;88.00
27368;DHT22;14839;48.106;11.618;2023-02-01T10:30:47;6.00;88.10
27368;DHT22;14839;48.106;11.618;2023-02-01T10:33:32;6.00;88.40
27368;DHT22;14839;48.106;11.618;2023-02-01T10:36:08;6.00;87.80
27368;DHT22;14839;48.106;11.618;2023-02-01T10:38:36;6.00;88.00
27368;DHT22;14839;48.106;11.618;2023-02-01T10:41:22;5.90;88.00
27368;DHT22;14839;48.106;11.618;2023-02-01T10:43:53;5.90;87.80
27368;DHT22;14839;48.106;11.618;2023-02-01T10:46:22;5.90;88.90
27368;DHT22;14839;48.106;11.618;2023-02-01T10:48:50;5.90;89.00
27368;DHT22;14839;48.106;11.618;2023-02-01T10:51:35;5.80;89.20
27368;DHT22;14839;48.106;11.618;2023-02-01T10:54:17;5.80;89.00
27368;DHT22;14839;48.106;11.618;2023-02-01T10:56:44;5.80;89.50
27368;DHT22;14839;48.106;11.618;2023-02-01T10:59:23;5.80;89.50
27368;DHT22;14839;48.106;11.618;2023-02-01T11:01:49;5.90;89.50
27368;DHT22;14839;48.106;11.618;2023-02-01T11:04:18;5.80;88.90
27368;DHT22;14839;48.106;11.618;2023-02-01T11:06:51;5.80;89.20
27368;DHT22;14839;48.106;11.618;2023-02-01T11:09:18;5.80;89.30
27368;DHT22;14839;48.106;11.618;2023-02-01T11:14:20;5.80;90.10
27368;DHT22;14839;48.106;11.618;2023-02-01T11:16:55;5.80;90.10
27368;DHT22;14839;48.106;11.618;2023-02-01T11:19:22;5.70;90.10
27368;DHT22;14839;48.106;11.618;2023-02-01T11:21:59;5.70;90.20
27368;DHT22;14839;48.106;11.618;2023-02-01T11:27:15;5.70;90.10
27368;DHT22;14839;48.106;11.618;2023-02-01T11:30:13;5.80;90.30
27368;DHT22;14839;48.106;11.618;2023-02-01T11:32:51;5.90;89.90
27368;DHT22;14839;48.106;11.618;2023-02-01T11:35:38;5.80;90.20
27368;DHT22;14839;48.106;11.618;2023-02-01T11:38:22;5.80;89.90
27368;DHT22;14839;48.106;11.618;2023-02-01T11:40:52;5.80;90.20
27368;DHT22;14839;48.106;11.618;2023-02-01T11:43:52;5.70;90.10
27368;DHT22;14839;48.106;11.618;2023-02-01T11:46:40;5.70;90.60
27368;DHT22;14839;48.106;11.618;2023-02-01T11:49:23;5.50;90.50
27368;DHT22;14839;48.106;11.618;2023-02-01T11:58:06;5.40;91.30
27368;DHT22;14839;48.106;11.618;2023-02-01T12:06:05;5.30;90.70
27368;DHT22;14839;48.106;11.618;2023-02-01T12:11:38;5.30;91.00
27368;DHT22;14839;48.106;11.618;2023-02-01T12:23:20;5.40;90.40
27368;DHT22;14839;48.106;11.618;2023-02-01T12:29:23;5.60;90.50
27368;DHT22;14839;48.106;11.618;2023-02-01T12:31:55;5.60;90.20
27368;DHT22;14839;48.106;11.618;2023-02-01T12:38:24;5.50;90.10
27368;DHT22;14839;48.106;11.618;2023-02-01T12:43:43;5.20;90.70
27368;DHT22;14839;48.106;11.618;2023-02-01T12:46:39;5.10;90.80
27368;DHT22;14839;48.106;11.618;2023-02-01T12:49:06;5.00;91.00
27368;DHT22;14839;48.106;11.618;2023-02-01T12:51:39;5.00;90.60
27368;DHT22;14839;48.106;11.618;2023-02-01T12:56:45;5.00;90.60
27368;DHT22;14839;48.106;11.618;2023-02-01T12:59:36;5.00;90.40
27368;DHT22;14839;48.106;11.618;2023-02-01T13:02:28;5.00;90.10
27368;DHT22;14839;48.106;11.618;2023-02-01T13:05:13;5.00;89.90
27368;DHT22;14839;48.106;11.618;2023-02-01T13:12:57;5.00;88.90
27368;DHT22;14839;48.106;11.618;2023-02-01T13:15:33;5.10;89.20
27368;DHT22;14839;48.106;11.618;2023-02-01T13:18:03;5.10;89.00
27368;DHT22;14839;48.106;11.618;2023-02-01T13:20:35;5.10;89.30
27368;DHT22;14839;48.106;11.618;2023-02-01T13:23:07;5.10;89.30
27368;DHT22;14839;48.106;11.618;2023-02-01T13:25:48;5.20;89.60
27368;DHT22;14839;48.106;11.618;2023-02-01T13:28:28;5.20;89.30
27368;DHT22;14839;48.106;11.618;2023-02-01T13:41:57;5.20;91.00
27368;DHT22;14839;48.106;11.618;2023-02-01T13:44:38;5.30;91.20
27368;DHT22;14839;48.106;11.618;2023-02-01T13:47:23;5.30;91.20
27368;DHT22;14839;48.106;11.618;2023-02-01T13:49:51;5.30;91.20
27368;DHT22;14839;48.106;11.618;2023-02-01T13:52:39;5.40;91.50
27368;DHT22;14839;48.106;11.618;2023-02-01T13:57:48;5.40;91.60
27368;DHT22;14839;48.106;11.618;2023-02-01T14:00:25;5.40;91.50
27368;DHT22;14839;48.106;11.618;2023-02-01T14:10:55;5.20;92.50
27368;DHT22;14839;48.106;11.618;2023-02-01T14:13:32;5.10;92.40
27368;DHT22;14839;48.106;11.618;2023-02-01T14:23:55;5.10;92.50
27368;DHT22;14839;48.106;11.618;2023-02-01T14:31:59;5.00;92.20
27368;DHT22;14839;48.106;11.618;2023-02-01T14:34:48;5.00;92.20
27368;DHT22;14839;48.106;11.618;2023-02-01T14:44:44;4.90;91.50
27368;DHT22;14839;48.106;11.618;2023-02-01T14:47:25;4.90;91.40
27368;DHT22;14839;48.106;11.618;2023-02-01T14:52:33;4.90;91.00
27368;DHT22;14839;48.106;11.618;2023-02-01T14:55:05;4.80;91.30
27368;DHT22;14839;48.106;11.618;2023-02-01T14:57:34;4.80;90.90
27368;DHT22;14839;48.106;11.618;2023-02-01T15:00:21;4.80;90.90
27368;DHT22;14839;48.106;11.618;2023-02-01T15:02:49;4.80;91.10
27368;DHT22;14839;48.106;11.618;2023-02-01T15:05:32;4.80;90.90
27368;DHT22;14839;48.106;11.618;2023-02-01T15:08:17;4.80;90.80
27368;DHT22;14839;48.106;11.618;2023-02-01T15:10:46;4.90;91.00
27368;DHT22;14839;48.106;11.618;2023-02-01T15:13:19;4.90;91.10
27368;DHT22;14839;48.106;11.618;2023-02-01T15:16:03;4.90;91.20
27368;DHT22;14839;48.106;11.618;2023-02-01T15:18:28;4.80;91.60
27368;DHT22;14839;48.106;11.618;2023-02-01T15:20:59;4.80;91.90
27368;DHT22;14839;48.106;11.618;2023-02-01T15:23:25;4.70;92.10
27368;DHT22;14839;48.106;11.618;2023-02-01T15:25:51;4.70;92.40
27368;DHT22;14839;48.106;11.618;2023-02-01T15:28:17;4.60;92.70
27368;DHT22;14839;48.106;11.618;2023-02-01T15:30:58;4.50;93.20
27368;DHT22;14839;48.106;11.618;2023-02-01T15:33:25;4.50;93.90
27368;DHT22;14839;48.106;11.618;2023-02-01T15:35:55;4.40;94.40
27368;DHT22;14839;48.106;11.618;2023-02-01T15:38:42;4.30;94.60
27368;DHT22;14839;48.106;11.618;2023-02-01T15:41:19;4.30;94.60
27368;DHT22;14839;48.106;11.618;2023-02-01T15:46:30;4.10;94.60
27368;DHT22;14839;48.106;11.618;2023-02-01T15:48:56;3.90;94.60
27368;DHT22;14839;48.106;11.618;2023-02-01T15:51:24;3.80;94.60
27368;DHT22;14839;48.106;11.618;2023-02-01T15:54:00;3.80;94.60
27368;DHT22;14839;48.106;11.618;2023-02-01T15:56:38;3.80;94.60
27368;DHT22;14839;48.106;11.618;2023-02-01T15:59:19;3.80;94.60
27368;DHT22;14839;48.106;11.618;2023-02-01T16:01:46;3.90;94.60
27368;DHT22;14839;48.106;11.618;2023-02-01T16:04:23;3.80;94.60
27368;DHT22;14839;48.106;11.618;2023-02-01T16:06:59;3.90;94.60
27368;DHT22;14839;48.106;11.618;2023-02-01T16:09:55;3.80;94.60
27368;DHT22;14839;48.106;11.618;2023-02-01T16:12:34;3.80;94.60
27368;DHT22;14839;48.106;11.618;2023-02-01T16:15:02;3.80;94.60
27368;DHT22;14839;48.106;11.618;2023-02-01T16:17:28;3.80;94.60
27368;DHT22;14839;48.106;11.618;2023-02-01T16:19:53;3.80;94.60
27368;DHT22;14839;48.106;11.618;2023-02-01T16:22:19;3.80;94.60
27368;DHT22;14839;48.106;11.618;2023-02-01T16:24:45;3.80;94.60
27368;DHT22;14839;48.106;11.618;2023-02-01T16:27:10;3.80;94.60
27368;DHT22;14839;48.106;11.618;2023-02-01T16:29:36;3.80;94.60
27368;DHT22;14839;48.106;11.618;2023-02-01T16:32:02;3.80;94.60
27368;DHT22;14839;48.106;11.618;2023-02-01T16:34:28;3.80;94.60
27368;DHT22;14839;48.106;11.618;2023-02-01T16:36:54;3.90;94.60
27368;DHT22;14839;48.106;11.618;2023-02-01T16:39:22;3.90;94.60
27368;DHT22;14839;48.106;11.618;2023-02-01T16:41:49;3.90;94.60
27368;DHT22;14839;48.106;11.618;2023-02-01T16:44:15;3.90;94.60
27368;DHT22;14839;48.106;11.618;2023-02-01T16:46:42;3.90;94.60
27368;DHT22;14839;48.106;11.618;2023-02-01T16:49:20;3.90;94.60
27368;DHT22;14839;48.106;11.618;2023-02-01T16:51:47;4.00;94.60
27368;DHT22;14839;48.106;11.618;2023-02-01T16:54:14;4.00;94.60
27368;DHT22;14839;48.106;11.618;2023-02-01T16:56:41;4.00;94.60
27368;DHT22;14839;48.106;11.618;2023-02-01T16:59:07;4.00;94.60
27368;DHT22;14839;48.106;11.618;2023-02-01T17:01:34;4.00;94.60
27368;DHT22;14839;48.106;11.618;2023-02-01T17:04:03;4.00;94.50
27368;DHT22;14839;48.106;11.618;2023-02-01T17:06:29;4.00;94.30
27368;DHT22;14839;48.106;11.618;2023-02-01T17:08:58;4.00;94.00
27368;DHT22;14839;48.106;11.618;2023-02-01T17:11:26;4.10;93.50
27368;DHT22;14839;48.106;11.618;2023-02-01T17:13:52;4.10;93.50
27368;DHT22;14839;48.106;11.618;2023-02-01T17:18:46;4.20;93.10
27368;DHT22;14839;48.106;11.618;2023-02-01T17:21:12;4.20;92.70
27368;DHT22;14839;48.106;11.618;2023-02-01T17:23:38;4.20;92.50
27368;DHT22;14839;48.106;11.618;2023-02-01T17:26:04;4.20;92.00
27368;DHT22;14839;48.106;11.618;2023-02-01T17:28:29;4.20;91.70
27368;DHT22;14839;48.106;11.618;2023-02-01T17:30:56;4.20;91.40
27368;DHT22;14839;48.106;11.618;2023-02-01T17:33:30;4.30;91.00
27368;DHT22;14839;48.106;11.618;2023-02-01T17:35:57;4.30;91.00
27368;DHT22;14839;48.106;11.618;2023-02-01T17:38:23;4.30;90.90
27368;DHT22;14839;48.106;11.618;2023-02-01T17:40:49;4.30;90.70
27368;DHT22;14839;48.106;11.618;2023-02-01T17:43:18;4.30;90.70
27368;DHT22;14839;48.106;11.618;2023-02-01T17:48:18;4.30;90.80
27368;DHT22;14839;48.106;11.618;2023-02-01T17:50:45;4.30;90.50
27368;DHT22;14839;48.106;11.618;2023-02-01T17:53:12;4.40;90.50
27368;DHT22;14839;48.106;11.618;2023-02-01T17:55:50;4.40;90.50
27368;DHT22;14839;48.106;11.618;2023-02-01T17:58:22;4.40;90.20
27368;DHT22;14839;48.106;11.618;2023-02-01T18:00:48;4.40;90.10
27368;DHT22;14839;48.106;11.618;2023-02-01T18:03:34;4.40;89.60
27368;DHT22;14839;48.106;11.618;2023-02-01T18:06:01;4.40;89.60
27368;DHT22;14839;48.106;11.618;2023-02-01T18:08:29;4.40;89.30
27368;DHT22;14839;48.106;11.618;2023-02-01T18:10:59;4.40;89.20
27368;DHT22;14839;48.106;11.618;2023-02-01T18:13:28;4.40;89.20
27368;DHT22;14839;48.106;11.618;2023-02-01T18:15:55;4.40;88.60
27368;DHT22;14839;48.106;11.618;2023-02-01T18:18:23;4.40;88.70
27368;DHT22;14839;48.106;11.618;2023-02-01T18:20:49;4.50;88.60
27368;DHT22;14839;48.106;11.618;2023-02-01T18:23:17;4.50;88.00
27368;DHT22;14839;48.106;11.618;2023-02-01T18:25:44;4.50;88.10
27368;DHT22;14839;48.106;11.618;2023-02-01T18:28:12;4.50;88.30
27368;DHT22;14839;48.106;11.618;2023-02-01T18:30:39;4.50;88.00
27368;DHT22;14839;48.106;11.618;2023-02-01T18:33:09;4.50;88.00
27368;DHT22;14839;48.106;11.618;2023-02-01T18:35:35;4.50;88.10
27368;DHT22;14839;48.106;11.618;2023-02-01T18:38:01;4.50;88.10
27368;DHT22;14839;48.106;11.618;2023-02-01T18:40:34;4.50;87.70
27368;DHT22;14839;48.106;11.618;2023-02-01T18:43:00;4.60;87.20
27368;DHT22;14839;48.106;11.618;2023-02-01T18:45:37;4.60;86.80
27368;DHT22;14839;48.106;11.618;2023-02-01T18:48:04;4.60;86.80
27368;DHT22;14839;48.106;11.618;2023-02-01T18:50:34;4.60;86.90
27368;DHT22;14839;48.106;11.618;2023-02-01T18:53:01;4.60;86.90
27368;DHT22;14839;48.106;11.618;2023-02-01T18:55:28;4.60;86.30
27368;DHT22;14839;48.106;11.618;2023-02-01T18:57:54;4.60;86.90
27368;DHT22;14839;48.106;11.618;2023-02-01T19:00:21;4.60;86.80
27368;DHT22;14839;48.106;11.618;2023-02-01T19:02:47;4.60;86.90
27368;DHT22;14839;48.106;11.618;2023-02-01T19:05:14;4.60;87.10
27368;DHT22;14839;48.106;11.618;2023-02-01T19:07:41;4.60;87.10
27368;DHT22;14839;48.106;11.618;2023-02-01T19:10:10;4.60;86.90
27368;DHT22;14839;48.106;11.618;2023-02-01T19:12:36;4.60;87.10
27368;DHT22;14839;48.106;11.618;2023-02-01T19:15:04;4.60;87.10
27368;DHT22;14839;48.106;11.618;2023-02-01T19:17:31;4.50;87.10
27368;DHT22;14839;48.106;11.618;2023-02-01T19:19:56;4.50;87.20
27368;DHT22;14839;48.106;11.618;2023-02-01T19:22:25;4.50;87.40
27368;DHT22;14839;48.106;11.618;2023-02-01T19:24:51;4.50;87.20
27368;DHT22;14839;48.106;11.618;2023-02-01T19:27:17;4.50;87.20
27368;DHT22;14839;48.106;11.618;2023-02-01T19:29:43;4.50;87.20
27368;DHT22;14839;48.106;11.618;2023-02-01T19:32:12;4.50;87.50
27368;DHT22;14839;48.106;11.618;2023-02-01T19:34:38;4.40;87.50
27368;DHT22;14839;48.106;11.618;2023-02-01T19:37:05;4.50;87.70
27368;DHT22;14839;48.106;11.618;2023-02-01T19:39:30;4.50;87.70
27368;DHT22;14839;48.106;11.618;2023-02-01T19:41:56;4.50;87.50
27368;DHT22;14839;48.106;11.618;2023-02-01T19:44:23;4.50;87.50
27368;DHT22;14839;48.106;11.618;2023-02-01T19:46:49;4.50;87.70
27368;DHT22;14839;48.106;11.618;2023-02-01T19:49:15;4.50;87.50
27368;DHT22;14839;48.106;11.618;2023-02-01T19:51:41;4.50;87.70
27368;DHT22;14839;48.106;11.618;2023-02-01T19:54:09;4.50;87.80
27368;DHT22;14839;48.106;11.618;2023-02-01T19:56:35;4.50;87.40
27368;DHT22;14839;48.106;11.618;2023-02-01T19:59:02;4.50;87.50
27368;DHT22;14839;48.106;11.618;2023-02-01T20:01:30;4.50;87.80
27368;DHT22;14839;48.106;11.618;2023-02-01T20:03:55;4.50;87.70
27368;DHT22;14839;48.106;11.618;2023-02-01T20:06:28;4.50;87.80
27368;DHT22;14839;48.106;11.618;2023-02-01T20:08:54;4.50;87.50
27368;DHT22;14839;48.106;11.618;2023-02-01T20:11:20;4.50;87.50
27368;DHT22;14839;48.106;11.618;2023-02-01T20:13:47;4.60;87.20
27368;DHT22;14839;48.106;11.618;2023-02-01T20:16:12;4.60;87.40
27368;DHT22;14839;48.106;11.618;2023-02-01T20:18:38;4.50;87.40
27368;DHT22;14839;48.106;11.618;2023-02-01T20:21:07;4.50;87.40
27368;DHT22;14839;48.106;11.618;2023-02-01T20:23:32;4.50;87.40
27368;DHT22;14839;48.106;11.618;2023-02-01T20:26:03;4.50;87.40
27368;DHT22;14839;48.106;11.618;2023-02-01T20:28:30;4.50;87.50
27368;DHT22;14839;48.106;11.618;2023-02-01T20:30:56;4.60;87.20
27368;DHT22;14839;48.106;11.618;2023-02-01T20:33:22;4.60;87.20
27368;DHT22;14839;48.106;11.618;2023-02-01T20:35:49;4.60;87.40
27368;DHT22;14839;48.106;11.618;2023-02-01T20:38:14;4.60;86.90
27368;DHT22;14839;48.106;11.618;2023-02-01T20:40:40;4.60;87.20
27368;DHT22;14839;48.106;11.618;2023-02-01T20:43:05;4.60;87.20
27368;DHT22;14839;48.106;11.618;2023-02-01T20:45:33;4.60;87.40
27368;DHT22;14839;48.106;11.618;2023-02-01T20:47:58;4.60;87.10
27368;DHT22;14839;48.106;11.618;2023-02-01T20:50:41;4.60;87.10
27368;DHT22;14839;48.106;11.618;2023-02-01T20:53:07;4.60;87.70
27368;DHT22;14839;48.106;11.618;2023-02-01T20:55:32;4.60;87.80
27368;DHT22;14839;48.106;11.618;2023-02-01T20:57:58;4.60;87.80
27368;DHT22;14839;48.106;11.618;2023-02-01T21:00:23;4.60;87.80
27368;DHT22;14839;48.106;11.618;2023-02-01T21:02:52;4.60;88.30
27368;DHT22;14839;48.106;11.618;2023-02-01T21:05:18;4.60;88.40
27368;DHT22;14839;48.106;11.618;2023-02-01T21:07:43;4.60;88.40
27368;DHT22;14839;48.106;11.618;2023-02-01T21:10:10;4.60;88.60
27368;DHT22;14839;48.106;11.618;2023-02-01T21:12:36;4.60;88.90
27368;DHT22;14839;48.106;11.618;2023-02-01T21:15:03;4.60;88.90
27368;DHT22;14839;48.106;11.618;2023-02-01T21:17:33;4.60;89.20
27368;DHT22;14839;48.106;11.618;2023-02-01T21:19:58;4.60;89.20
27368;DHT22;14839;48.106;11.618;2023-02-01T21:22:24;4.60;89.50
27368;DHT22;14839;48.106;11.618;2023-02-01T21:24:50;4.50;90.10
27368;DHT22;14839;48.106;11.618;2023-02-01T21:27:16;4.50;90.30
27368;DHT22;14839;48.106;11.618;2023-02-01T21:29:41;4.50;90.30
27368;DHT22;14839;48.106;11.618;2023-02-01T21:32:08;4.50;90.10
27368;DHT22;14839;48.106;11.618;2023-02-01T21:34:34;4.50;90.10
27368;DHT22;14839;48.106;11.618;2023-02-01T21:37:00;4.50;89.90
27368;DHT22;14839;48.106;11.618;2023-02-01T21:39:26;4.60;90.10
27368;DHT22;14839;48.106;11.618;2023-02-01T21:41:54;4.50;90.20
27368;DHT22;14839;48.106;11.618;2023-02-01T21:44:38;4.50;90.60
27368;DHT22;14839;48.106;11.618;2023-02-01T21:47:04;4.50;90.70
27368;DHT22;14839;48.106;11.618;2023-02-01T21:49:30;4.50;90.80
27368;DHT22;14839;48.106;11.618;2023-02-01T21:51:55;4.40;90.90
27368;DHT22;14839;48.106;11.618;2023-02-01T21:54:21;4.40;91.00
27368;DHT22;14839;48.106;11.618;2023-02-01T21:56:47;4.40;91.20
27368;DHT22;14839;48.106;11.618;2023-02-01T21:59:13;4.40;91.10
27368;DHT22;14839;48.106;11.618;2023-02-01T22:01:39;4.40;91.20
27368;DHT22;14839;48.106;11.618;2023-02-01T22:04:06;4.40;91.10
27368;DHT22;14839;48.106;11.618;2023-02-01T22:06:35;4.40;91.30
27368;DHT22;14839;48.106;11.618;2023-02-01T22:09:01;4.30;91.70
27368;DHT22;14839;48.106;11.618;2023-02-01T22:11:27;4.30;92.00
27368;DHT22;14839;48.106;11.618;2023-02-01T22:13:53;4.30;92.10
27368;DHT22;14839;48.106;11.618;2023-02-01T22:16:19;4.30;92.60
27368;DHT22;14839;48.106;11.618;2023-02-01T22:18:51;4.30;92.90
27368;DHT22;14839;48.106;11.618;2023-02-01T22:21:18;4.30;92.70
27368;DHT22;14839;48.106;11.618;2023-02-01T22:23:44;4.30;93.00
27368;DHT22;14839;48.106;11.618;2023-02-01T22:26:14;4.30;92.80
27368;DHT22;14839;48.106;11.618;2023-02-01T22:28:40;4.30;92.30
